createdAt,value
2022-12-29T00:00:46.755Z,7.63
2022-12-29T00:03:10.461Z,7.79
2022-12-29T00:05:34.034Z,7.45
2022-12-29T00:07:57.632Z,7.68
2022-12-29T00:10:22.550Z,7.85
2022-12-29T00:13:03.832Z,7.78
2022-12-29T00:15:39.246Z,7.63
2022-12-29T00:18:02.953Z,7.78
2022-12-29T00:20:44.017Z,7.88
2022-12-29T00:23:25.216Z,7.60
2022-12-29T00:26:07.691Z,7.63
2022-12-29T00:28:48.843Z,7.76
2022-12-29T00:31:31.945Z,7.86
2022-12-29T00:34:15.952Z,7.97
2022-12-29T00:36:43.477Z,7.67
2022-12-29T00:39:29.957Z,7.64
2022-12-29T00:42:12.250Z,7.77
2022-12-29T00:44:36.222Z,7.97
2022-12-29T00:47:03.346Z,7.58
2022-12-29T00:49:32.660Z,7.82
2022-12-29T00:51:57.937Z,7.90
2022-12-29T00:54:21.979Z,7.97
2022-12-29T00:56:45.510Z,7.70
2022-12-29T00:59:12.444Z,7.85
2022-12-29T01:01:37.573Z,7.69
2022-12-29T01:04:03.967Z,7.69
2022-12-29T01:06:28.028Z,7.86
2022-12-29T01:09:11.708Z,7.77
2022-12-29T01:11:34.327Z,8.01
2022-12-29T01:13:57.921Z,7.89
2022-12-29T01:16:22.940Z,7.85
2022-12-29T01:18:47.271Z,7.72
2022-12-29T01:21:10.885Z,7.85
2022-12-29T01:23:34.873Z,7.81
2022-12-29T01:25:58.736Z,7.94
2022-12-29T01:28:26.103Z,7.98
2022-12-29T01:30:50.167Z,7.70
2022-12-29T01:33:15.052Z,7.54
2022-12-29T01:35:38.657Z,7.81
2022-12-29T01:38:02.205Z,7.87
2022-12-29T01:40:26.009Z,7.71
2022-12-29T01:42:49.518Z,7.73
2022-12-29T01:45:15.468Z,8.00
2022-12-29T01:47:42.744Z,7.92
2022-12-29T01:50:12.458Z,7.72
2022-12-29T01:52:42.707Z,7.59
2022-12-29T01:55:08.817Z,7.63
2022-12-29T01:57:37.176Z,7.96
2022-12-29T02:00:05.863Z,7.57
2022-12-29T02:02:36.646Z,7.90
2022-12-29T02:05:04.579Z,7.61
2022-12-29T02:07:31.033Z,7.81
2022-12-29T02:09:57.125Z,7.75
2022-12-29T02:12:23.969Z,7.59
2022-12-29T02:14:48.217Z,7.70
2022-12-29T02:17:18.784Z,7.91
2022-12-29T02:20:24.551Z,8.02
2022-12-29T02:23:09.948Z,8.01
2022-12-29T02:26:16.622Z,7.95
2022-12-29T02:29:19.861Z,7.77
2022-12-29T02:31:49.030Z,8.08
2022-12-29T02:34:24.809Z,8.00
2022-12-29T02:37:01.607Z,7.88
2022-12-29T02:39:34.808Z,7.86
2022-12-29T02:42:06.737Z,8.07
2022-12-29T02:44:38.862Z,7.97
2022-12-29T02:47:12.004Z,7.93
2022-12-29T02:49:41.710Z,8.04
2022-12-29T02:52:09.146Z,8.05
2022-12-29T02:54:45.273Z,8.10
2022-12-29T02:57:17.039Z,7.89
2022-12-29T02:59:43.214Z,8.18
2022-12-29T03:02:38.840Z,8.09
2022-12-29T03:05:19.667Z,8.02
2022-12-29T03:07:52.684Z,8.08
2022-12-29T03:10:36.994Z,8.16
2022-12-29T03:13:27.545Z,8.16
2022-12-29T03:16:04.366Z,8.23
2022-12-29T03:18:40.747Z,8.30
2022-12-29T03:21:11.710Z,8.41
2022-12-29T03:23:37.155Z,8.27
2022-12-29T03:26:06.641Z,8.35
2022-12-29T03:28:36.075Z,8.32
2022-12-29T03:31:02.174Z,8.59
2022-12-29T03:33:30.912Z,8.51
2022-12-29T03:36:03.887Z,8.54
2022-12-29T03:38:36.703Z,8.51
2022-12-29T03:41:05.800Z,8.52
2022-12-29T03:43:31.482Z,8.57
2022-12-29T03:45:55.857Z,8.45
2022-12-29T03:48:19.672Z,8.55
2022-12-29T03:50:45.536Z,8.69
2022-12-29T03:53:09.145Z,8.57
2022-12-29T03:55:32.727Z,8.69
2022-12-29T03:57:57.524Z,8.65
2022-12-29T04:00:34.263Z,9.01
2022-12-29T04:02:58.313Z,8.75
2022-12-29T04:05:22.130Z,8.78
2022-12-29T04:07:49.740Z,8.77
2022-12-29T04:10:13.418Z,8.85
2022-12-29T04:12:37.486Z,8.88
2022-12-29T04:15:01.119Z,9.01
2022-12-29T04:17:24.689Z,8.79
2022-12-29T04:19:50.126Z,8.76
2022-12-29T04:22:13.902Z,8.99
2022-12-29T04:24:39.292Z,8.85
2022-12-29T04:27:02.930Z,8.88
2022-12-29T04:29:58.485Z,8.96
2022-12-29T04:32:31.625Z,9.00
2022-12-29T04:34:55.266Z,8.98
2022-12-29T04:37:19.829Z,9.22
2022-12-29T04:39:45.108Z,9.06
2022-12-29T04:42:08.997Z,9.06
2022-12-29T04:44:32.634Z,9.08
2022-12-29T04:47:11.556Z,9.09
2022-12-29T04:49:49.479Z,9.03
2022-12-29T04:52:30.926Z,9.11
2022-12-29T04:54:56.033Z,9.04
2022-12-29T04:57:19.837Z,9.00
2022-12-29T04:59:47.774Z,9.10
2022-12-29T05:02:12.298Z,9.12
2022-12-29T05:04:36.215Z,9.13
2022-12-29T05:06:59.750Z,9.09
2022-12-29T05:09:25.456Z,9.09
2022-12-29T05:11:50.547Z,9.07
2022-12-29T05:14:14.244Z,9.33
2022-12-29T05:16:38.407Z,9.12
2022-12-29T05:19:02.656Z,9.21
2022-12-29T05:21:27.899Z,9.16
2022-12-29T05:23:52.204Z,9.20
2022-12-29T05:26:16.053Z,9.25
2022-12-29T05:28:52.406Z,9.18
2022-12-29T05:31:16.760Z,9.22
2022-12-29T05:33:41.576Z,9.26
2022-12-29T05:36:07.433Z,9.34
2022-12-29T05:38:32.588Z,9.30
2022-12-29T05:40:56.172Z,9.51
2022-12-29T05:43:39.723Z,9.42
2022-12-29T05:46:27.764Z,9.42
2022-12-29T05:49:03.099Z,9.62
2022-12-29T05:51:32.537Z,9.66
2022-12-29T05:53:56.981Z,9.41
2022-12-29T05:56:20.553Z,9.66
2022-12-29T05:58:50.829Z,9.63
2022-12-29T06:01:14.525Z,9.60
2022-12-29T06:03:44.475Z,9.58
2022-12-29T06:06:11.426Z,9.64
2022-12-29T06:08:35.027Z,9.61
2022-12-29T06:10:58.955Z,9.62
2022-12-29T06:13:22.565Z,9.56
2022-12-29T06:15:47.468Z,9.67
2022-12-29T06:18:16.438Z,9.72
2022-12-29T06:20:44.838Z,9.77
2022-12-29T06:23:08.468Z,9.76
2022-12-29T06:25:33.318Z,9.60
2022-12-29T06:27:57.083Z,9.70
2022-12-29T06:30:20.667Z,9.79
2022-12-29T06:32:45.366Z,9.88
2022-12-29T06:35:10.952Z,9.74
2022-12-29T06:37:40.820Z,9.92
2022-12-29T06:40:04.704Z,9.80
2022-12-29T06:42:40.078Z,9.81
2022-12-29T06:45:19.232Z,9.84
2022-12-29T06:47:42.803Z,9.87
2022-12-29T06:50:07.690Z,9.78
2022-12-29T06:52:31.395Z,9.78
2022-12-29T06:54:56.307Z,9.81
2022-12-29T06:57:20.067Z,9.99
2022-12-29T06:59:43.654Z,9.78
2022-12-29T07:02:07.562Z,9.80
2022-12-29T07:04:31.698Z,9.83
2022-12-29T07:06:55.283Z,9.87
2022-12-29T07:09:18.956Z,9.81
2022-12-29T07:11:43.889Z,9.85
2022-12-29T07:14:07.526Z,9.87
2022-12-29T07:16:31.497Z,9.68
2022-12-29T07:18:55.145Z,9.84
2022-12-29T07:21:18.838Z,9.82
2022-12-29T07:23:42.355Z,9.94
2022-12-29T07:26:09.591Z,9.81
2022-12-29T07:28:36.111Z,9.94
2022-12-29T07:30:59.766Z,9.66
2022-12-29T07:33:23.357Z,9.76
2022-12-29T07:35:46.922Z,9.92
2022-12-29T07:38:10.424Z,9.85
2022-12-29T07:40:34.015Z,9.74
2022-12-29T07:42:57.576Z,9.85
2022-12-29T07:45:31.917Z,9.81
2022-12-29T07:48:08.556Z,9.76
2022-12-29T07:50:32.155Z,9.78
2022-12-29T07:52:55.708Z,9.85
2022-12-29T07:55:19.632Z,9.97
2022-12-29T07:57:43.222Z,9.97
2022-12-29T08:00:08.340Z,9.92
2022-12-29T08:02:36.853Z,10.09
2022-12-29T08:05:00.448Z,10.03
2022-12-29T08:07:24.116Z,10.23
2022-12-29T08:09:47.782Z,10.01
2022-12-29T08:12:12.405Z,9.92
2022-12-29T08:14:36.135Z,10.05
2022-12-29T08:16:59.652Z,10.16
2022-12-29T08:19:24.608Z,10.25
2022-12-29T08:21:48.121Z,10.07
2022-12-29T08:24:12.356Z,10.14
2022-12-29T08:26:36.330Z,9.99
2022-12-29T08:28:59.873Z,10.14
2022-12-29T08:31:23.666Z,10.08
2022-12-29T08:33:47.313Z,9.99
2022-12-29T08:36:12.563Z,9.88
2022-12-29T08:38:36.274Z,10.12
2022-12-29T08:41:00.529Z,10.21
2022-12-29T08:43:24.206Z,9.91
2022-12-29T08:45:47.774Z,10.21
2022-12-29T08:48:11.355Z,10.22
2022-12-29T08:50:34.896Z,10.06
2022-12-29T08:53:00.031Z,10.08
2022-12-29T08:55:23.549Z,10.24
2022-12-29T08:57:49.217Z,10.25
2022-12-29T09:00:17.174Z,10.14
2022-12-29T09:02:40.942Z,10.19
2022-12-29T09:05:05.501Z,10.34
2022-12-29T09:07:29.141Z,10.56
2022-12-29T09:09:54.109Z,10.51
2022-12-29T09:12:18.557Z,10.51
2022-12-29T09:14:43.810Z,10.60
2022-12-29T09:17:25.069Z,10.65
2022-12-29T09:19:48.707Z,10.74
2022-12-29T09:22:12.240Z,10.62
2022-12-29T09:24:35.889Z,10.73
2022-12-29T09:27:00.785Z,10.60
2022-12-29T09:29:24.598Z,10.58
2022-12-29T09:31:48.216Z,10.64
2022-12-29T09:34:11.872Z,10.89
2022-12-29T09:36:35.424Z,10.89
2022-12-29T09:38:59.017Z,11.00
2022-12-29T09:41:29.221Z,10.96
2022-12-29T09:44:09.135Z,11.18
2022-12-29T09:46:38.365Z,11.24
2022-12-29T09:49:17.868Z,11.19
2022-12-29T09:51:45.503Z,11.22
2022-12-29T09:54:26.876Z,11.58
2022-12-29T09:56:51.902Z,11.53
2022-12-29T09:59:22.326Z,11.27
2022-12-29T10:01:55.230Z,11.43
2022-12-29T10:04:19.023Z,11.45
2022-12-29T10:07:27.425Z,11.58
2022-12-29T10:09:36.818Z,11.27
2022-12-29T10:12:15.668Z,11.36
2022-12-29T10:15:00.131Z,11.28
2022-12-29T10:17:33.369Z,11.41
2022-12-29T10:20:21.764Z,11.37
2022-12-29T10:23:11.346Z,11.37
2022-12-29T10:25:40.843Z,11.47
2022-12-29T10:28:08.657Z,11.67
2022-12-29T10:30:36.659Z,11.59
2022-12-29T10:33:05.675Z,11.76
2022-12-29T10:35:40.355Z,11.79
2022-12-29T10:38:15.288Z,11.61
2022-12-29T10:40:46.253Z,11.56
2022-12-29T10:43:29.937Z,11.84
2022-12-29T10:45:59.285Z,11.89
2022-12-29T10:48:31.820Z,11.60
2022-12-29T10:51:02.226Z,11.99
2022-12-29T10:53:31.179Z,12.02
2022-12-29T10:55:56.866Z,11.87
2022-12-29T10:58:22.856Z,12.09
2022-12-29T11:00:54.844Z,11.99
2022-12-29T11:03:52.581Z,12.18
2022-12-29T11:06:23.359Z,12.26
2022-12-29T11:08:56.006Z,12.11
2022-12-29T11:11:28.938Z,12.03
2022-12-29T11:13:59.597Z,12.29
2022-12-29T11:16:32.935Z,12.31
2022-12-29T11:18:59.296Z,12.27
2022-12-29T11:21:41.431Z,11.99
2022-12-29T11:24:08.435Z,12.12
2022-12-29T11:26:34.810Z,12.11
2022-12-29T11:29:25.907Z,12.47
2022-12-29T11:31:52.739Z,12.31
2022-12-29T11:34:34.068Z,12.26
2022-12-29T11:37:07.415Z,11.84
2022-12-29T11:39:39.785Z,11.66
2022-12-29T11:42:05.917Z,11.86
2022-12-29T11:44:34.967Z,11.49
2022-12-29T11:46:59.577Z,11.56
2022-12-29T11:49:28.086Z,11.57
2022-12-29T11:51:55.893Z,11.54
2022-12-29T11:54:26.340Z,11.32
2022-12-29T11:56:52.424Z,11.33
2022-12-29T11:59:44.911Z,11.18
2022-12-29T12:02:43.680Z,11.43
2022-12-29T12:05:28.339Z,10.97
2022-12-29T12:08:00.198Z,11.07
2022-12-29T12:10:31.670Z,11.16
2022-12-29T12:13:06.264Z,11.03
2022-12-29T12:15:45.366Z,10.89
2022-12-29T12:18:19.895Z,10.78
2022-12-29T12:20:56.403Z,10.69
2022-12-29T12:23:40.382Z,10.48
2022-12-29T12:26:14.538Z,10.67
2022-12-29T12:28:51.166Z,10.55
2022-12-29T12:31:29.204Z,10.56
2022-12-29T12:34:01.585Z,10.71
2022-12-29T12:36:55.657Z,10.36
2022-12-29T12:39:30.094Z,10.32
2022-12-29T12:42:09.270Z,10.25
2022-12-29T12:44:47.965Z,10.26
2022-12-29T12:47:45.483Z,10.50
2022-12-29T12:50:43.430Z,10.31
2022-12-29T12:53:45.410Z,10.35
2022-12-29T12:56:42.904Z,10.17
2022-12-29T12:59:22.555Z,10.40
2022-12-29T13:02:02.826Z,10.42
2022-12-29T13:05:25.979Z,10.28
2022-12-29T13:08:06.319Z,10.51
2022-12-29T13:10:47.073Z,10.36
2022-12-29T13:14:01.565Z,10.53
2022-12-29T13:16:36.657Z,10.43
2022-12-29T13:19:05.297Z,10.36
2022-12-29T13:21:56.232Z,10.30
2022-12-29T13:24:33.229Z,10.44
2022-12-29T13:27:04.635Z,10.39
2022-12-29T13:29:38.605Z,10.13
2022-12-29T13:32:18.280Z,10.30
2022-12-29T13:34:54.747Z,10.43
2022-12-29T13:37:22.303Z,10.51
2022-12-29T13:39:50.650Z,10.37
2022-12-29T13:42:16.158Z,10.22
2022-12-29T13:44:46.276Z,10.42
2022-12-29T13:47:24.278Z,10.33
2022-12-29T13:49:48.790Z,10.42
2022-12-29T13:52:32.329Z,10.42
2022-12-29T13:55:04.291Z,10.30
2022-12-29T13:57:43.554Z,10.47
2022-12-29T14:00:16.962Z,10.41
2022-12-29T14:03:06.809Z,10.44
2022-12-29T14:05:33.626Z,10.38
2022-12-29T14:08:01.790Z,10.50
2022-12-29T14:10:34.375Z,10.37
2022-12-29T14:13:07.777Z,10.43
2022-12-29T14:15:31.668Z,10.41
2022-12-29T14:18:16.887Z,10.54
2022-12-29T14:20:41.876Z,10.42
2022-12-29T14:23:26.902Z,10.55
2022-12-29T14:26:16.741Z,10.28
2022-12-29T14:28:43.647Z,10.35
2022-12-29T14:31:42.106Z,10.18
2022-12-29T14:34:33.321Z,10.30
2022-12-29T14:36:59.428Z,10.31
2022-12-29T14:39:40.096Z,10.24
2022-12-29T14:42:07.086Z,10.45
2022-12-29T14:44:32.357Z,10.34
2022-12-29T14:47:02.681Z,10.43
2022-12-29T14:49:29.792Z,10.40
2022-12-29T14:51:55.709Z,10.27
2022-12-29T14:54:54.403Z,10.48
2022-12-29T14:57:38.246Z,10.42
2022-12-29T15:00:20.562Z,10.47
2022-12-29T15:02:49.710Z,10.34
2022-12-29T15:05:33.029Z,10.03
2022-12-29T15:07:58.786Z,9.76
2022-12-29T15:10:23.951Z,9.63
2022-12-29T15:12:55.723Z,9.15
2022-12-29T15:15:25.484Z,9.11
2022-12-29T15:17:49.207Z,9.03
2022-12-29T15:20:24.198Z,9.29
2022-12-29T15:22:50.541Z,9.32
2022-12-29T15:25:18.559Z,9.21
2022-12-29T15:27:44.753Z,9.15
2022-12-29T15:30:18.390Z,9.22
2022-12-29T15:32:46.909Z,9.21
2022-12-29T15:35:35.315Z,9.10
2022-12-29T15:38:00.052Z,9.35
2022-12-29T15:40:30.175Z,9.38
2022-12-29T15:43:22.462Z,9.30
2022-12-29T15:45:46.237Z,9.36
2022-12-29T15:48:19.706Z,9.29
2022-12-29T15:50:45.079Z,9.17
2022-12-29T15:53:13.513Z,9.14
2022-12-29T15:55:40.280Z,9.18
2022-12-29T15:58:06.833Z,9.24
2022-12-29T16:00:34.337Z,9.20
2022-12-29T16:03:01.690Z,9.13
2022-12-29T16:05:34.717Z,9.15
2022-12-29T16:08:00.279Z,9.24
2022-12-29T16:10:34.566Z,9.11
2022-12-29T16:13:08.475Z,9.01
2022-12-29T16:15:32.254Z,9.16
2022-12-29T16:17:57.640Z,9.18
2022-12-29T16:20:25.289Z,9.03
2022-12-29T16:22:54.107Z,9.14
2022-12-29T16:25:25.381Z,9.21
2022-12-29T16:27:49.048Z,9.17
2022-12-29T16:30:26.494Z,9.14
2022-12-29T16:32:57.158Z,9.11
2022-12-29T16:35:23.596Z,9.17
2022-12-29T16:37:47.866Z,9.18
2022-12-29T16:40:32.922Z,9.17
2022-12-29T16:43:02.203Z,9.02
2022-12-29T16:46:21.068Z,8.80
2022-12-29T16:48:51.296Z,8.69
2022-12-29T16:51:18.639Z,8.90
2022-12-29T16:53:44.690Z,8.85
2022-12-29T16:56:16.840Z,8.88
2022-12-29T16:58:42.699Z,8.95
2022-12-29T17:01:15.708Z,8.96
2022-12-29T17:03:44.339Z,8.86
2022-12-29T17:06:14.647Z,9.15
2022-12-29T17:08:43.887Z,8.94
2022-12-29T17:11:27.481Z,8.67
2022-12-29T17:13:51.146Z,8.97
2022-12-29T17:16:14.719Z,8.90
2022-12-29T17:18:38.796Z,9.02
2022-12-29T17:21:02.551Z,9.04
2022-12-29T17:23:26.908Z,9.03
2022-12-29T17:25:50.483Z,9.05
2022-12-29T17:28:22.352Z,9.28
2022-12-29T17:30:46.011Z,9.18
2022-12-29T17:33:14.922Z,9.22
2022-12-29T17:35:38.811Z,9.11
2022-12-29T17:38:02.309Z,9.11
2022-12-29T17:40:29.744Z,9.19
2022-12-29T17:42:57.620Z,9.26
2022-12-29T17:45:26.223Z,9.47
2022-12-29T17:47:50.113Z,9.37
2022-12-29T17:50:16.619Z,9.32
2022-12-29T17:52:40.171Z,9.45
2022-12-29T17:55:03.831Z,9.60
2022-12-29T17:57:27.358Z,9.54
2022-12-29T17:59:51.282Z,9.49
2022-12-29T18:02:29.505Z,9.41
2022-12-29T18:04:53.488Z,9.48
2022-12-29T18:07:16.999Z,9.43
2022-12-29T18:09:40.617Z,9.56
2022-12-29T18:12:05.803Z,9.56
2022-12-29T18:14:29.562Z,9.62
2022-12-29T18:16:53.070Z,9.38
2022-12-29T18:19:18.025Z,9.47
2022-12-29T18:21:43.024Z,9.49
2022-12-29T18:24:07.607Z,9.36
2022-12-29T18:26:35.542Z,9.58
2022-12-29T18:28:59.968Z,9.38
2022-12-29T18:31:26.534Z,9.29
2022-12-29T18:33:52.069Z,9.45
2022-12-29T18:36:18.294Z,9.28
2022-12-29T18:38:42.273Z,9.39
2022-12-29T18:41:06.011Z,9.40
2022-12-29T18:43:29.607Z,9.22
2022-12-29T18:45:53.256Z,9.06
2022-12-29T18:48:18.991Z,9.07
2022-12-29T18:50:42.550Z,9.25
2022-12-29T18:53:07.561Z,9.25
2022-12-29T18:55:31.801Z,9.33
2022-12-29T18:57:55.430Z,9.32
2022-12-29T19:00:21.267Z,9.24
2022-12-29T19:02:45.436Z,9.29
2022-12-29T19:05:22.737Z,9.45
2022-12-29T19:07:46.329Z,9.35
2022-12-29T19:10:11.430Z,9.47
2022-12-29T19:12:36.281Z,9.43
2022-12-29T19:15:02.193Z,9.41
2022-12-29T19:17:25.785Z,9.41
2022-12-29T19:19:49.348Z,9.30
2022-12-29T19:22:12.920Z,9.42
2022-12-29T19:24:36.452Z,9.47
2022-12-29T19:27:01.452Z,9.39
2022-12-29T19:29:24.990Z,9.50
2022-12-29T19:31:48.605Z,9.23
2022-12-29T19:34:14.979Z,9.33
2022-12-29T19:36:38.592Z,9.47
2022-12-29T19:39:02.149Z,9.14
2022-12-29T19:41:26.083Z,9.16
2022-12-29T19:43:51.019Z,9.32
2022-12-29T19:46:19.281Z,9.26
2022-12-29T19:48:42.909Z,9.45
2022-12-29T19:51:08.698Z,9.52
2022-12-29T19:53:32.217Z,9.29
2022-12-29T19:55:55.829Z,9.25
2022-12-29T19:58:19.329Z,9.45
2022-12-29T20:00:45.117Z,9.39
2022-12-29T20:03:09.104Z,9.44
2022-12-29T20:05:33.059Z,9.23
2022-12-29T20:07:56.600Z,9.23
2022-12-29T20:10:20.401Z,9.29
2022-12-29T20:12:43.986Z,9.43
2022-12-29T20:15:10.027Z,9.34
2022-12-29T20:18:10.839Z,9.17
2022-12-29T20:20:19.134Z,9.20
2022-12-29T20:22:42.748Z,9.43
2022-12-29T20:25:43.090Z,9.18
2022-12-29T20:27:50.971Z,9.41
2022-12-29T20:30:15.522Z,9.29
2022-12-29T20:32:40.514Z,9.23
2022-12-29T20:35:04.277Z,9.13
2022-12-29T20:37:27.988Z,9.00
2022-12-29T20:39:51.612Z,8.91
2022-12-29T20:42:15.204Z,9.14
2022-12-29T20:44:39.287Z,9.09
2022-12-29T20:47:04.853Z,9.17
2022-12-29T20:49:30.084Z,9.11
2022-12-29T20:52:09.370Z,9.15
2022-12-29T20:54:38.620Z,9.16
2022-12-29T20:57:03.503Z,9.04
2022-12-29T20:59:28.336Z,9.08
2022-12-29T21:01:52.708Z,9.10
2022-12-29T21:04:16.619Z,8.95
2022-12-29T21:06:41.609Z,8.98
2022-12-29T21:09:06.529Z,8.84
2022-12-29T21:11:30.194Z,8.98
2022-12-29T21:13:53.767Z,8.86
2022-12-29T21:16:19.015Z,8.99
2022-12-29T21:18:42.991Z,8.96
2022-12-29T21:21:09.742Z,9.09
2022-12-29T21:23:35.228Z,8.94
2022-12-29T21:26:00.317Z,9.07
2022-12-29T21:28:25.373Z,9.08
2022-12-29T21:30:50.091Z,9.03
2022-12-29T21:33:13.800Z,9.01
2022-12-29T21:35:38.498Z,9.00
2022-12-29T21:38:02.114Z,9.18
2022-12-29T21:40:27.100Z,9.22
2022-12-29T21:42:50.797Z,9.13
2022-12-29T21:45:25.079Z,9.17
2022-12-29T21:48:06.390Z,9.04
2022-12-29T21:50:30.022Z,9.15
2022-12-29T21:52:53.564Z,8.99
2022-12-29T21:55:17.343Z,8.84
2022-12-29T21:57:59.775Z,8.86
2022-12-29T22:00:40.784Z,8.84
2022-12-29T22:03:23.870Z,8.81
2022-12-29T22:06:04.890Z,8.71
2022-12-29T22:08:46.026Z,8.61
2022-12-29T22:11:27.693Z,8.82
2022-12-29T22:13:55.932Z,8.80
2022-12-29T22:16:19.477Z,8.54
2022-12-29T22:18:43.120Z,8.65
2022-12-29T22:21:07.821Z,8.74
2022-12-29T22:23:31.409Z,8.74
2022-12-29T22:25:54.982Z,8.69
2022-12-29T22:28:19.159Z,8.75
2022-12-29T22:30:44.239Z,8.86
2022-12-29T22:33:08.231Z,8.93
2022-12-29T22:35:31.719Z,8.59
2022-12-29T22:37:55.475Z,8.84
2022-12-29T22:40:19.215Z,8.69
2022-12-29T22:42:42.993Z,9.00
2022-12-29T22:45:07.734Z,8.86
2022-12-29T22:47:32.740Z,8.85
2022-12-29T22:49:56.271Z,8.75
2022-12-29T22:52:19.863Z,8.74
2022-12-29T22:54:43.407Z,8.64
2022-12-29T22:57:06.985Z,8.47
2022-12-29T22:59:30.475Z,8.77
2022-12-29T23:01:54.172Z,8.72
2022-12-29T23:05:01.693Z,8.77
2022-12-29T23:07:03.084Z,8.67
2022-12-29T23:09:27.568Z,8.72
2022-12-29T23:11:53.350Z,8.84
2022-12-29T23:14:17.844Z,8.75
2022-12-29T23:16:41.555Z,8.95
2022-12-29T23:19:05.994Z,8.70
2022-12-29T23:21:31.257Z,8.69
2022-12-29T23:23:55.869Z,8.75
2022-12-29T23:26:20.683Z,8.63
2022-12-29T23:28:44.237Z,8.71
2022-12-29T23:31:07.941Z,8.62
2022-12-29T23:33:31.736Z,8.85
2022-12-29T23:35:55.306Z,8.76
2022-12-29T23:38:20.762Z,8.71
2022-12-29T23:40:44.561Z,8.67
2022-12-29T23:43:08.111Z,8.79
2022-12-29T23:45:32.280Z,8.71
2022-12-29T23:47:55.864Z,8.62
2022-12-29T23:50:19.448Z,8.60
2022-12-29T23:52:43.004Z,8.49
2022-12-29T23:55:10.907Z,8.72
2022-12-29T23:57:34.431Z,8.37
2022-12-29T23:59:58.180Z,8.33
